createdAt,value
2023-03-21T00:00:44.894Z,35.60
2023-03-21T00:03:22.214Z,41.30
2023-03-21T00:05:52.284Z,36.60
2023-03-21T00:08:20.069Z,45.30
2023-03-21T00:10:47.829Z,44.80
2023-03-21T00:13:15.484Z,43.50
2023-03-21T00:16:14.326Z,35.30
2023-03-21T00:18:42.508Z,39.10
2023-03-21T00:23:57.950Z,34.00
2023-03-21T00:26:26.234Z,42.00
2023-03-21T00:28:53.886Z,29.20
2023-03-21T00:31:21.521Z,32.70
2023-03-21T00:33:49.214Z,31.10
2023-03-21T00:36:17.047Z,37.60
2023-03-21T00:38:44.841Z,36.30
2023-03-21T00:41:23.211Z,34.90
2023-03-21T00:43:55.816Z,30.50
2023-03-21T00:46:27.547Z,41.70
2023-03-21T00:48:57.811Z,39.00
2023-03-21T00:51:28.647Z,40.90
2023-03-21T00:53:56.413Z,38.90
2023-03-21T00:56:24.277Z,36.80
2023-03-21T00:58:52.041Z,43.00
2023-03-21T01:01:19.704Z,33.90
2023-03-21T01:03:51.305Z,36.70
2023-03-21T01:06:19.761Z,35.80
2023-03-21T01:08:54.810Z,36.50
2023-03-21T01:11:22.956Z,35.50
2023-03-21T01:13:59.629Z,36.40
2023-03-21T01:16:35.435Z,37.20
2023-03-21T01:19:05.176Z,37.50
2023-03-21T01:21:34.888Z,33.80
2023-03-21T01:24:02.566Z,30.40
2023-03-21T01:26:30.319Z,38.70
2023-03-21T01:28:58.078Z,30.00
2023-03-21T01:31:25.759Z,35.90
2023-03-21T01:33:53.505Z,34.50
2023-03-21T01:36:23.796Z,34.80
2023-03-21T01:38:51.907Z,36.40
2023-03-21T01:41:20.348Z,37.60
2023-03-21T01:43:48.264Z,37.20
2023-03-21T01:46:21.349Z,35.60
2023-03-21T01:48:49.304Z,36.40
2023-03-21T01:51:17.294Z,36.00
2023-03-21T01:53:45.446Z,33.70
2023-03-21T01:56:13.209Z,35.90
2023-03-21T01:58:41.079Z,34.50
2023-03-21T02:01:09.029Z,33.80
2023-03-21T02:03:50.300Z,33.70
2023-03-21T02:06:18.296Z,33.20
2023-03-21T02:08:46.884Z,34.40
2023-03-21T02:11:14.646Z,34.80
2023-03-21T02:13:42.507Z,34.50
2023-03-21T02:16:10.481Z,37.10
2023-03-21T02:18:38.347Z,32.70
2023-03-21T02:21:06.114Z,31.90
2023-03-21T02:23:33.770Z,31.30
2023-03-21T02:26:01.534Z,28.30
2023-03-21T02:28:29.199Z,27.50
2023-03-21T02:30:57.240Z,37.20
2023-03-21T02:33:25.363Z,36.70
2023-03-21T02:35:56.674Z,33.80
2023-03-21T02:38:26.405Z,33.70
2023-03-21T02:40:54.060Z,29.90
2023-03-21T02:43:23.600Z,36.00
2023-03-21T02:45:51.891Z,35.00
2023-03-21T02:48:29.281Z,33.90
2023-03-21T02:51:01.293Z,34.00
2023-03-21T02:53:28.957Z,35.10
2023-03-21T02:55:56.930Z,26.80
2023-03-21T02:58:24.589Z,29.20
2023-03-21T03:00:55.426Z,33.00
2023-03-21T03:03:33.623Z,38.90
2023-03-21T03:06:02.420Z,39.50
2023-03-21T03:08:41.197Z,38.50
2023-03-21T03:11:15.257Z,38.10
2023-03-21T03:13:43.024Z,34.00
2023-03-21T03:16:11.653Z,39.70
2023-03-21T03:18:39.475Z,41.00
2023-03-21T03:21:07.249Z,36.40
2023-03-21T03:23:35.000Z,39.30
2023-03-21T03:26:02.769Z,37.20
2023-03-21T03:28:30.629Z,35.30
2023-03-21T03:31:08.570Z,37.30
2023-03-21T03:33:38.344Z,35.10
2023-03-21T03:36:07.130Z,38.60
2023-03-21T03:38:35.691Z,37.90
2023-03-21T03:41:03.889Z,38.30
2023-03-21T03:43:31.650Z,32.00
2023-03-21T03:45:59.322Z,35.20
2023-03-21T03:48:27.222Z,30.10
2023-03-21T03:50:55.049Z,35.30
2023-03-21T03:53:22.821Z,37.10
2023-03-21T03:55:50.471Z,35.50
2023-03-21T03:58:23.916Z,33.70
2023-03-21T04:00:53.782Z,33.20
2023-03-21T04:03:22.226Z,33.90
2023-03-21T04:05:50.646Z,32.20
2023-03-21T04:08:18.410Z,35.60
2023-03-21T04:10:46.478Z,36.20
2023-03-21T04:13:14.250Z,32.60
2023-03-21T04:15:42.014Z,34.10
2023-03-21T04:18:09.708Z,34.00
2023-03-21T04:20:37.638Z,32.30
2023-03-21T04:23:05.717Z,36.20
2023-03-21T04:25:34.541Z,33.60
2023-03-21T04:28:02.568Z,32.80
2023-03-21T04:30:30.336Z,32.20
2023-03-21T04:32:58.098Z,34.60
2023-03-21T04:35:25.865Z,35.00
2023-03-21T04:37:53.633Z,37.40
2023-03-21T04:40:21.388Z,35.00
2023-03-21T04:42:49.460Z,35.60
2023-03-21T04:45:17.229Z,35.80
2023-03-21T04:47:45.025Z,35.00
2023-03-21T04:50:13.983Z,34.70
2023-03-21T04:52:41.747Z,34.90
2023-03-21T04:55:10.473Z,39.20
2023-03-21T04:57:38.628Z,34.50
2023-03-21T05:00:09.850Z,34.70
2023-03-21T05:02:37.517Z,33.00
2023-03-21T05:05:05.474Z,34.50
2023-03-21T05:07:33.239Z,33.00
2023-03-21T05:10:02.419Z,32.60
2023-03-21T05:12:30.508Z,38.40
2023-03-21T05:14:58.273Z,34.90
2023-03-21T05:17:28.706Z,35.80
2023-03-21T05:19:59.536Z,36.80
2023-03-21T05:22:29.268Z,39.70
2023-03-21T05:24:57.038Z,34.00
2023-03-21T05:27:37.164Z,38.70
2023-03-21T05:30:04.928Z,36.80
2023-03-21T05:32:32.697Z,36.20
2023-03-21T05:35:00.763Z,29.60
2023-03-21T05:37:28.428Z,34.90
2023-03-21T05:39:56.197Z,30.70
2023-03-21T05:42:23.959Z,37.20
2023-03-21T05:44:51.717Z,35.80
2023-03-21T05:47:19.380Z,34.50
2023-03-21T05:49:47.454Z,31.20
2023-03-21T05:52:15.624Z,32.10
2023-03-21T05:54:43.284Z,26.50
2023-03-21T05:57:11.150Z,33.00
2023-03-21T05:59:39.128Z,30.00
2023-03-21T06:02:06.894Z,30.20
2023-03-21T06:04:34.549Z,28.40
2023-03-21T06:07:02.225Z,27.70
2023-03-21T06:09:29.873Z,26.30
2023-03-21T06:11:57.535Z,27.40
2023-03-21T06:14:25.501Z,28.60
2023-03-21T06:16:54.193Z,26.80
2023-03-21T06:19:22.161Z,23.20
2023-03-21T06:21:49.796Z,25.90
2023-03-21T06:24:18.210Z,23.00
2023-03-21T06:26:46.580Z,27.30
2023-03-21T06:29:14.341Z,25.90
2023-03-21T06:31:42.185Z,25.00
2023-03-21T06:34:11.926Z,23.50
2023-03-21T06:36:39.677Z,26.60
2023-03-21T06:39:08.470Z,25.50
2023-03-21T06:41:36.241Z,28.70
2023-03-21T06:44:03.997Z,34.20
2023-03-21T06:46:31.792Z,25.60
2023-03-21T06:48:59.523Z,22.30
2023-03-21T06:51:27.183Z,23.10
2023-03-21T06:53:54.849Z,22.70
2023-03-21T06:56:22.508Z,24.20
2023-03-21T06:58:50.269Z,23.00
2023-03-21T07:01:17.966Z,20.30
2023-03-21T07:03:45.801Z,23.20
2023-03-21T07:06:13.768Z,22.00
2023-03-21T07:08:41.637Z,21.80
2023-03-21T07:11:09.317Z,20.90
2023-03-21T07:13:37.061Z,25.50
2023-03-21T07:16:04.886Z,15.80
2023-03-21T07:18:32.693Z,23.40
2023-03-21T07:21:00.666Z,22.60
2023-03-21T07:23:28.429Z,21.50
2023-03-21T07:25:56.420Z,17.00
2023-03-21T07:28:24.262Z,23.50
2023-03-21T07:30:52.127Z,22.80
2023-03-21T07:33:19.789Z,22.50
2023-03-21T07:35:47.478Z,22.50
2023-03-21T07:38:17.073Z,17.70
2023-03-21T07:40:44.826Z,19.40
2023-03-21T07:43:12.505Z,18.90
2023-03-21T07:45:40.523Z,15.70
2023-03-21T07:48:08.498Z,17.20
2023-03-21T07:50:36.298Z,16.20
2023-03-21T07:53:03.948Z,14.60
2023-03-21T07:55:35.102Z,16.00
2023-03-21T07:58:02.961Z,13.20
2023-03-21T08:00:30.896Z,15.90
2023-03-21T08:02:59.131Z,12.90
2023-03-21T08:05:27.067Z,14.50
2023-03-21T08:07:54.730Z,13.70
2023-03-21T08:10:22.393Z,14.10
2023-03-21T08:12:50.155Z,15.00
2023-03-21T08:15:17.816Z,15.00
2023-03-21T08:17:48.659Z,15.80
2023-03-21T08:20:16.531Z,14.00
2023-03-21T08:22:44.287Z,15.30
2023-03-21T08:25:14.006Z,13.30
2023-03-21T08:27:41.766Z,17.20
2023-03-21T08:30:09.524Z,15.30
2023-03-21T08:32:38.920Z,16.20
2023-03-21T08:35:08.737Z,15.80
2023-03-21T08:37:36.810Z,18.50
2023-03-21T08:40:07.964Z,17.80
2023-03-21T08:42:35.821Z,16.40
2023-03-21T08:45:05.019Z,16.10
2023-03-21T08:47:32.783Z,13.30
2023-03-21T08:50:00.443Z,14.70
2023-03-21T08:52:28.220Z,15.50
2023-03-21T08:54:56.080Z,16.50
2023-03-21T08:57:23.836Z,14.60
2023-03-21T08:59:51.499Z,14.60
2023-03-21T09:02:19.468Z,15.20
2023-03-21T09:04:47.686Z,14.80
2023-03-21T09:07:18.190Z,16.10
2023-03-21T09:09:50.758Z,14.00
2023-03-21T09:12:21.481Z,16.90
2023-03-21T09:14:50.168Z,17.90
2023-03-21T09:17:20.002Z,16.00
2023-03-21T09:19:51.022Z,16.20
2023-03-21T09:22:19.197Z,16.40
2023-03-21T09:24:47.880Z,16.50
2023-03-21T09:27:17.794Z,19.50
2023-03-21T09:29:46.272Z,19.60
2023-03-21T09:32:13.943Z,18.60
2023-03-21T09:34:42.212Z,20.40
2023-03-21T09:37:13.966Z,19.40
2023-03-21T09:42:13.197Z,10.30
2023-03-21T09:44:44.122Z,18.60
2023-03-21T09:47:14.240Z,18.60
2023-03-21T09:49:42.313Z,16.60
2023-03-21T09:52:12.539Z,17.50
2023-03-21T09:54:40.814Z,19.10
2023-03-21T09:57:09.292Z,16.20
2023-03-21T09:59:38.357Z,17.90
2023-03-21T10:02:06.762Z,18.80
2023-03-21T10:04:35.303Z,16.50
2023-03-21T10:07:04.250Z,11.90
2023-03-21T10:09:32.723Z,16.90
2023-03-21T10:12:00.687Z,17.60
2023-03-21T10:14:28.461Z,20.90
2023-03-21T10:16:57.050Z,20.00
2023-03-21T10:19:24.906Z,19.60
2023-03-21T10:22:02.207Z,20.40
2023-03-21T10:24:30.975Z,20.50
2023-03-21T10:26:58.736Z,18.30
2023-03-21T10:29:26.442Z,22.30
2023-03-21T10:31:54.593Z,21.30
2023-03-21T10:34:22.447Z,18.70
2023-03-21T10:36:50.415Z,19.80
2023-03-21T10:39:18.176Z,19.70
2023-03-21T10:41:46.052Z,18.30
2023-03-21T10:44:14.935Z,18.90
2023-03-21T10:46:42.770Z,16.00
2023-03-21T10:49:10.900Z,16.20
2023-03-21T10:51:38.749Z,16.60
2023-03-21T10:54:06.782Z,16.80
2023-03-21T10:56:34.569Z,19.60
2023-03-21T10:59:02.333Z,21.70
2023-03-21T11:01:30.906Z,18.60
2023-03-21T11:03:58.792Z,17.80
2023-03-21T11:06:26.746Z,16.30
2023-03-21T11:08:54.515Z,15.00
2023-03-21T11:11:22.485Z,13.10
2023-03-21T11:13:50.268Z,16.20
2023-03-21T11:16:18.114Z,14.70
2023-03-21T11:18:47.728Z,13.50
2023-03-21T11:21:15.706Z,13.40
2023-03-21T11:23:44.893Z,12.50
2023-03-21T11:26:12.554Z,12.70
2023-03-21T11:28:40.648Z,14.20
2023-03-21T11:31:09.679Z,15.30
2023-03-21T11:33:37.591Z,15.60
2023-03-21T11:36:05.398Z,15.10
2023-03-21T11:38:33.431Z,14.60
2023-03-21T11:41:01.200Z,16.10
2023-03-21T11:43:28.954Z,15.00
2023-03-21T11:45:57.228Z,16.80
2023-03-21T11:48:25.203Z,15.60
2023-03-21T11:50:52.963Z,16.90
2023-03-21T11:53:20.828Z,13.30
2023-03-21T11:55:48.486Z,17.90
2023-03-21T11:58:16.456Z,16.90
2023-03-21T12:00:44.064Z,17.90
2023-03-21T12:03:11.786Z,17.60
2023-03-21T12:05:39.645Z,18.20
2023-03-21T12:08:07.514Z,15.10
2023-03-21T12:10:37.632Z,30.30
2023-03-21T12:13:05.294Z,25.60
2023-03-21T12:15:32.955Z,13.10
2023-03-21T12:18:00.726Z,14.70
2023-03-21T12:20:29.409Z,12.10
2023-03-21T12:22:58.112Z,15.00
2023-03-21T12:25:27.930Z,12.30
2023-03-21T12:27:56.490Z,12.60
2023-03-21T12:30:24.555Z,12.00
2023-03-21T12:32:52.578Z,11.40
2023-03-21T12:35:20.286Z,12.80
2023-03-21T12:37:48.050Z,9.30
2023-03-21T12:40:15.716Z,9.10
2023-03-21T12:42:43.376Z,13.20
2023-03-21T12:45:15.401Z,9.30
2023-03-21T12:47:43.853Z,9.10
2023-03-21T12:50:11.582Z,11.50
2023-03-21T12:52:39.348Z,11.50
2023-03-21T12:55:07.518Z,12.50
2023-03-21T12:57:38.258Z,10.60
2023-03-21T13:00:13.701Z,15.00
2023-03-21T13:02:41.360Z,13.00
2023-03-21T13:05:09.325Z,12.60
2023-03-21T13:07:37.306Z,15.50
2023-03-21T13:10:05.064Z,10.70
2023-03-21T13:12:32.821Z,10.80
2023-03-21T13:15:00.585Z,13.00
2023-03-21T13:17:28.348Z,12.20
2023-03-21T13:19:56.075Z,12.20
2023-03-21T13:22:23.778Z,13.00
2023-03-21T13:24:51.544Z,14.90
2023-03-21T13:27:20.225Z,19.30
2023-03-21T13:29:47.991Z,13.70
2023-03-21T13:32:15.871Z,19.00
2023-03-21T13:34:43.726Z,15.60
2023-03-21T13:37:11.386Z,13.00
2023-03-21T13:39:39.049Z,11.70
2023-03-21T13:42:06.929Z,20.40
2023-03-21T13:44:34.682Z,16.00
2023-03-21T13:47:02.341Z,13.50
2023-03-21T13:49:30.116Z,13.20
2023-03-21T13:51:58.725Z,14.80
2023-03-21T13:54:29.832Z,17.50
2023-03-21T13:56:58.772Z,13.60
2023-03-21T13:59:27.824Z,36.90
2023-03-21T14:01:55.582Z,23.30
2023-03-21T14:04:26.488Z,12.90
2023-03-21T14:06:59.784Z,16.60
2023-03-21T14:09:27.788Z,14.40
2023-03-21T14:11:58.711Z,13.00
2023-03-21T14:14:28.944Z,20.80
2023-03-21T14:16:56.606Z,13.40
2023-03-21T14:19:24.372Z,18.20
2023-03-21T14:21:54.157Z,22.10
2023-03-21T14:24:21.946Z,20.50
2023-03-21T14:26:49.612Z,14.60
2023-03-21T14:29:25.771Z,15.40
2023-03-21T14:31:54.142Z,14.70
2023-03-21T14:34:21.808Z,16.70
2023-03-21T14:36:57.718Z,16.70
2023-03-21T14:39:26.149Z,17.90
2023-03-21T14:41:53.908Z,21.00
2023-03-21T14:44:25.573Z,21.10
2023-03-21T14:46:53.223Z,16.70
2023-03-21T14:49:21.093Z,16.70
2023-03-21T14:51:48.976Z,13.60
2023-03-21T14:54:17.974Z,18.20
2023-03-21T14:56:47.862Z,17.10
2023-03-21T14:59:15.629Z,21.20
2023-03-21T15:01:45.892Z,19.30
2023-03-21T15:04:13.720Z,21.10
2023-03-21T15:06:41.580Z,17.70
2023-03-21T15:09:11.153Z,19.10
2023-03-21T15:11:39.066Z,19.70
2023-03-21T15:14:06.843Z,19.70
2023-03-21T15:16:34.646Z,18.10
2023-03-21T15:19:03.280Z,17.60
2023-03-21T15:21:31.238Z,16.50
2023-03-21T15:23:59.002Z,13.00
2023-03-21T15:26:26.766Z,12.10
2023-03-21T15:28:54.429Z,11.90
2023-03-21T15:31:22.176Z,9.00
2023-03-21T15:33:49.955Z,11.90
2023-03-21T15:36:17.753Z,10.70
2023-03-21T15:38:49.066Z,13.60
2023-03-21T15:41:16.838Z,12.10
2023-03-21T15:43:44.500Z,11.00
2023-03-21T15:46:12.189Z,12.10
2023-03-21T15:48:39.885Z,11.20
2023-03-21T15:51:07.593Z,11.40
2023-03-21T15:53:35.679Z,12.60
2023-03-21T15:56:04.849Z,10.80
2023-03-21T15:58:34.676Z,11.00
2023-03-21T16:01:02.379Z,15.30
2023-03-21T16:03:30.114Z,16.20
2023-03-21T16:05:58.060Z,14.10
2023-03-21T16:08:25.921Z,16.60
2023-03-21T16:10:53.583Z,12.20
2023-03-21T16:13:21.244Z,16.20
2023-03-21T16:15:49.007Z,13.70
2023-03-21T16:18:17.489Z,12.70
2023-03-21T16:20:45.459Z,14.00
2023-03-21T16:23:13.222Z,12.80
2023-03-21T16:25:40.868Z,11.40
2023-03-21T16:28:08.648Z,10.70
2023-03-21T16:30:37.708Z,12.60
2023-03-21T16:33:05.612Z,10.70
2023-03-21T16:35:33.338Z,13.70
2023-03-21T16:38:03.505Z,13.40
2023-03-21T16:40:31.264Z,14.40
2023-03-21T16:42:58.943Z,15.80
2023-03-21T16:45:28.944Z,12.40
2023-03-21T16:47:56.794Z,12.90
2023-03-21T16:50:26.210Z,11.90
2023-03-21T16:52:53.973Z,13.10
2023-03-21T16:55:21.836Z,16.70
2023-03-21T16:57:49.613Z,14.40
2023-03-21T17:00:20.547Z,14.00
2023-03-21T17:02:48.364Z,14.90
2023-03-21T17:05:16.172Z,19.10
2023-03-21T17:07:44.346Z,18.20
2023-03-21T17:10:12.008Z,17.70
2023-03-21T17:12:54.729Z,22.90
2023-03-21T17:15:22.484Z,26.40
2023-03-21T17:17:50.555Z,19.20
2023-03-21T17:20:18.319Z,16.90
2023-03-21T17:22:46.082Z,16.70
2023-03-21T17:25:13.751Z,15.00
2023-03-21T17:27:41.408Z,15.40
2023-03-21T17:30:09.122Z,14.80
2023-03-21T17:32:36.840Z,13.30
2023-03-21T17:35:04.500Z,16.70
2023-03-21T17:37:32.258Z,17.70
2023-03-21T17:40:00.036Z,19.30
2023-03-21T17:42:27.682Z,19.60
2023-03-21T17:44:55.649Z,20.00
2023-03-21T17:47:25.873Z,17.30
2023-03-21T17:49:53.737Z,17.80
2023-03-21T17:52:21.398Z,17.20
2023-03-21T17:54:49.165Z,20.40
2023-03-21T17:57:16.827Z,20.10
2023-03-21T17:59:44.489Z,18.90
2023-03-21T18:02:12.213Z,22.60
2023-03-21T18:04:40.293Z,20.40
2023-03-21T18:07:12.035Z,21.80
2023-03-21T18:09:41.688Z,25.00
2023-03-21T18:12:09.658Z,21.20
2023-03-21T18:14:40.522Z,21.10
2023-03-21T18:17:08.670Z,23.10
2023-03-21T18:19:38.379Z,27.80
2023-03-21T18:22:06.961Z,28.60
2023-03-21T18:24:34.724Z,33.40
2023-03-21T18:27:03.002Z,31.90
2023-03-21T18:32:20.673Z,35.50
2023-03-21T18:34:48.844Z,42.90
2023-03-21T18:37:16.693Z,39.40
2023-03-21T18:39:45.507Z,41.10
2023-03-21T18:42:18.913Z,41.70
2023-03-21T18:44:48.384Z,39.00
2023-03-21T18:47:16.905Z,42.20
2023-03-21T18:52:33.280Z,48.70
2023-03-21T18:55:00.942Z,50.10
2023-03-21T18:57:37.969Z,55.00
2023-03-21T19:00:12.823Z,61.50
2023-03-21T19:02:45.527Z,72.80
2023-03-21T19:05:15.719Z,75.50
2023-03-21T19:07:43.826Z,72.90
2023-03-21T19:10:17.978Z,70.40
2023-03-21T19:12:47.044Z,47.00
2023-03-21T19:15:18.019Z,42.60
2023-03-21T19:18:30.786Z,44.50
2023-03-21T19:20:34.391Z,30.30
2023-03-21T19:23:02.462Z,37.20
2023-03-21T19:25:30.143Z,38.50
2023-03-21T19:27:57.891Z,35.60
2023-03-21T19:30:25.854Z,31.40
2023-03-21T19:32:56.074Z,33.00
2023-03-21T19:35:23.803Z,35.80
2023-03-21T19:37:51.606Z,34.90
2023-03-21T19:40:20.098Z,34.70
2023-03-21T19:42:48.157Z,27.90
2023-03-21T19:45:16.231Z,31.20
2023-03-21T19:47:43.910Z,32.40
2023-03-21T19:52:59.183Z,42.20
2023-03-21T19:55:27.256Z,36.70
2023-03-21T19:57:55.015Z,38.40
2023-03-21T20:00:23.085Z,35.50
2023-03-21T20:02:51.869Z,37.80
2023-03-21T20:05:25.660Z,40.20
2023-03-21T20:07:57.548Z,39.80
2023-03-21T20:12:56.238Z,36.70
2023-03-21T20:15:26.816Z,38.50
2023-03-21T20:17:56.687Z,38.50
2023-03-21T20:20:24.652Z,39.00
2023-03-21T20:23:07.013Z,38.20
2023-03-21T20:25:36.060Z,40.30
2023-03-21T20:28:15.816Z,40.70
2023-03-21T20:30:47.926Z,40.10
2023-03-21T20:33:15.739Z,40.90
2023-03-21T20:36:29.453Z,40.80
2023-03-21T20:38:31.329Z,41.10
2023-03-21T20:40:58.987Z,39.70
2023-03-21T20:44:20.474Z,34.90
2023-03-21T20:46:16.369Z,34.90
2023-03-21T20:48:44.095Z,37.60
2023-03-21T20:52:12.355Z,44.00
2023-03-21T20:53:59.590Z,47.60
2023-03-21T20:56:27.259Z,51.20
2023-03-21T20:59:08.395Z,52.00
2023-03-21T21:01:43.391Z,53.80
2023-03-21T21:04:12.769Z,56.50
2023-03-21T21:06:44.013Z,52.20
2023-03-21T21:09:11.672Z,52.30
2023-03-21T21:12:05.542Z,75.50
2023-03-21T21:14:26.964Z,82.00
2023-03-21T21:16:54.733Z,97.30
2023-03-21T21:19:22.492Z,65.00
2023-03-21T21:21:50.163Z,55.10
2023-03-21T21:24:17.819Z,53.80
2023-03-21T21:26:46.523Z,47.90
2023-03-21T21:29:17.357Z,48.30
2023-03-21T21:31:46.961Z,61.20
2023-03-21T21:34:15.843Z,55.90
2023-03-21T21:36:45.157Z,44.20
2023-03-21T21:39:18.757Z,44.20
2023-03-21T21:41:46.504Z,59.90
2023-03-21T21:44:15.291Z,48.60
2023-03-21T21:46:43.809Z,40.10
2023-03-21T21:49:11.744Z,35.60
2023-03-21T21:51:41.451Z,32.00
2023-03-21T21:54:10.139Z,32.30
2023-03-21T21:56:38.254Z,32.90
2023-03-21T21:59:06.280Z,33.20
2023-03-21T22:01:38.828Z,33.50
2023-03-21T22:04:08.409Z,41.20
2023-03-21T22:06:36.430Z,54.10
2023-03-21T22:09:04.717Z,48.30
2023-03-21T22:11:32.368Z,39.60
2023-03-21T22:14:00.050Z,43.50
2023-03-21T22:16:27.861Z,40.90
2023-03-21T22:18:55.806Z,43.30
2023-03-21T22:21:23.641Z,41.20
2023-03-21T22:23:51.289Z,41.90
2023-03-21T22:26:18.978Z,42.50
2023-03-21T22:28:46.818Z,47.10
2023-03-21T22:31:15.820Z,45.30
2023-03-21T22:33:43.677Z,48.80
2023-03-21T22:36:11.347Z,44.50
2023-03-21T22:38:39.218Z,44.00
2023-03-21T22:41:06.976Z,45.50
2023-03-21T22:43:35.494Z,44.20
2023-03-21T22:46:03.379Z,44.00
2023-03-21T22:48:31.298Z,39.10
2023-03-21T22:50:59.085Z,40.50
2023-03-21T22:53:26.832Z,63.40
2023-03-21T22:55:54.899Z,57.30
2023-03-21T22:58:22.563Z,56.80
2023-03-21T23:00:50.574Z,48.90
2023-03-21T23:03:18.300Z,53.50
2023-03-21T23:05:45.953Z,53.30
2023-03-21T23:08:13.628Z,46.90
2023-03-21T23:10:43.951Z,43.60
2023-03-21T23:13:11.807Z,40.70
2023-03-21T23:15:40.022Z,40.30
2023-03-21T23:18:07.836Z,40.90
2023-03-21T23:20:35.604Z,43.70
2023-03-21T23:23:03.368Z,42.40
2023-03-21T23:25:31.026Z,42.70
2023-03-21T23:27:58.791Z,40.80
2023-03-21T23:30:26.555Z,39.40
2023-03-21T23:32:54.217Z,39.80
2023-03-21T23:35:21.889Z,46.10
2023-03-21T23:37:53.048Z,45.00
2023-03-21T23:40:21.153Z,39.30
2023-03-21T23:42:48.961Z,34.20
2023-03-21T23:45:16.595Z,32.40
2023-03-21T23:47:44.344Z,36.60
2023-03-21T23:50:12.149Z,35.00
2023-03-21T23:52:41.762Z,37.30
2023-03-21T23:55:09.520Z,32.90
2023-03-21T23:57:38.425Z,37.00
